TimeCST,TemperatureF,Dew PointF,Humidity,Sea Level PressureIn,VisibilityMPH,Wind Direction,Wind SpeedMPH,Gust SpeedMPH,PrecipitationIn,Events,Conditions,WindDirDegrees,DateUTC
12:15 AM,16.7,6.6,65,30.10,10.0,NW,15.0,26.5,N/A,,Mostly Cloudy,320,2013-12-05 06:15:00
12:35 AM,16.7,6.3,64,30.11,10.0,NW,21.9,-,N/A,,Scattered Clouds,320,2013-12-05 06:35:00
12:55 AM,16.3,5.4,62,30.12,10.0,NW,18.4,28.8,N/A,,Clear,320,2013-12-05 06:55:00
1:15 AM,15.8,5.4,63,30.12,10.0,NW,16.1,-,N/A,,Clear,320,2013-12-05 07:15:00
1:35 AM,15.4,5.0,63,30.12,10.0,NW,23.0,28.8,N/A,,Clear,310,2013-12-05 07:35:00
1:55 AM,14.5,4.3,64,30.15,10.0,NW,20.7,28.8,N/A,,Clear,320,2013-12-05 07:55:00
2:15 AM,14.0,3.6,63,30.17,10.0,NW,23.0,27.6,N/A,,Clear,320,2013-12-05 08:15:00
2:35 AM,13.5,2.7,62,30.17,10.0,NW,21.9,28.8,N/A,,Clear,320,2013-12-05 08:35:00
2:55 AM,12.6,2.5,64,30.18,10.0,NW,19.6,24.2,N/A,,Clear,320,2013-12-05 08:55:00
3:15 AM,11.8,1.9,65,30.19,10.0,NW,15.0,23.0,N/A,,Clear,320,2013-12-05 09:15:00
3:35 AM,11.3,1.4,64,30.20,10.0,NW,17.3,23.0,N/A,,Clear,310,2013-12-05 09:35:00
3:55 AM,10.4,1.4,67,30.20,10.0,NW,16.1,-,N/A,,Clear,320,2013-12-05 09:55:00
4:15 AM,9.9,0.7,66,30.20,10.0,NW,17.3,-,N/A,,Clear,320,2013-12-05 10:15:00
4:35 AM,9.5,0.5,67,30.20,10.0,NW,16.1,20.7,N/A,,Clear,320,2013-12-05 10:35:00
4:55 AM,9.1,0.5,68,30.22,10.0,NW,10.4,-,N/A,,Clear,320,2013-12-05 10:55:00
5:15 AM,8.8,0.5,69,30.22,10.0,NW,11.5,-,N/A,,Clear,320,2013-12-05 11:15:00
5:35 AM,8.6,0.5,70,30.22,10.0,NW,12.7,-,N/A,,Clear,320,2013-12-05 11:35:00
5:55 AM,8.2,0.5,71,30.23,10.0,NW,8.1,-,N/A,,Clear,320,2013-12-05 11:55:00
6:15 AM,7.7,0.5,72,30.24,10.0,NW,8.1,-,N/A,,Clear,310,2013-12-05 12:15:00
6:35 AM,7.5,0.5,73,30.25,10.0,NW,9.2,-,N/A,,Clear,320,2013-12-05 12:35:00
6:55 AM,8.1,0.5,71,30.24,10.0,NW,12.7,-,N/A,,Clear,320,2013-12-05 12:55:00
7:15 AM,8.4,0.5,70,30.25,10.0,NW,15.0,-,N/A,,Clear,320,2013-12-05 13:15:00
7:35 AM,8.4,-0.0,68,30.25,10.0,NW,10.4,-,N/A,,Clear,320,2013-12-05 13:35:00
7:55 AM,8.4,0.3,70,30.27,10.0,NW,12.7,-,N/A,,Clear,320,2013-12-05 13:55:00
8:15 AM,8.8,0.1,68,30.27,10.0,NNW,13.8,-,N/A,,Clear,330,2013-12-05 14:15:00
8:35 AM,9.0,-0.6,65,30.28,10.0,NNW,13.8,-,N/A,,Clear,330,2013-12-05 14:35:00
8:55 AM,9.5,-0.6,64,30.29,10.0,NW,16.1,-,N/A,,Clear,320,2013-12-05 14:55:00
9:15 AM,10.0,-0.4,63,30.30,10.0,NNW,15.0,-,N/A,,Clear,330,2013-12-05 15:15:00
9:35 AM,10.4,-0.8,61,30.31,10.0,NW,10.4,-,N/A,,Clear,320,2013-12-05 15:35:00
9:55 AM,10.4,-1.3,59,30.32,10.0,NNW,12.7,-,N/A,,Clear,330,2013-12-05 15:55:00
10:15 AM,10.9,-1.3,58,30.34,10.0,NW,12.7,-,N/A,,Clear,320,2013-12-05 16:15:00
10:35 AM,11.7,-1.1,57,30.34,10.0,NW,13.8,19.6,N/A,,Clear,320,2013-12-05 16:35:00
10:55 AM,12.0,-1.7,54,30.33,10.0,NNW,15.0,18.4,N/A,,Clear,330,2013-12-05 16:55:00
11:15 AM,13.1,-1.3,53,30.34,10.0,NW,9.2,-,N/A,,Clear,320,2013-12-05 17:15:00
11:35 AM,13.5,-1.7,51,30.33,10.0,NNW,9.2,17.3,N/A,,Clear,330,2013-12-05 17:35:00
11:55 AM,14.0,-1.8,49,30.31,10.0,NNW,11.5,-,N/A,,Clear,330,2013-12-05 17:55:00
12:15 PM,14.5,-2.0,48,30.32,10.0,NNW,6.9,-,N/A,,Clear,330,2013-12-05 18:15:00
12:35 PM,15.3,-1.5,48,30.31,10.0,NW,10.4,-,N/A,,Clear,310,2013-12-05 18:35:00
12:55 PM,16.0,-1.5,46,30.31,10.0,NW,12.7,-,N/A,,Clear,320,2013-12-05 18:55:00
1:15 PM,16.2,-1.8,45,30.30,10.0,NNW,11.5,-,N/A,,Clear,340,2013-12-05 19:15:00
1:35 PM,16.0,-2.0,45,30.28,10.0,NNW,12.7,19.6,N/A,,Clear,330,2013-12-05 19:35:00
1:55 PM,15.8,-2.2,45,30.26,10.0,NNW,12.7,-,N/A,,Clear,330,2013-12-05 19:55:00
2:15 PM,15.8,-2.0,45,30.25,10.0,NW,15.0,18.4,N/A,,Clear,320,2013-12-05 20:15:00
2:35 PM,15.8,-2.0,45,30.25,10.0,NW,16.1,20.7,N/A,,Clear,320,2013-12-05 20:35:00
2:55 PM,15.8,-2.2,45,30.27,10.0,NNW,15.0,-,N/A,,Clear,330,2013-12-05 20:55:00
3:15 PM,15.3,-2.6,45,30.27,10.0,North,16.1,20.7,N/A,,Clear,350,2013-12-05 21:15:00
3:35 PM,15.3,-2.4,46,30.28,10.0,NNW,10.4,-,N/A,,Clear,330,2013-12-05 21:35:00
3:55 PM,16.5,-1.7,45,30.30,10.0,NNW,10.4,-,N/A,,Clear,330,2013-12-05 21:55:00
4:15 PM,15.4,-2.0,46,30.30,10.0,North,11.5,-,N/A,,Clear,360,2013-12-05 22:15:00
4:35 PM,15.8,-2.0,45,30.30,10.0,NNW,11.5,-,N/A,,Clear,340,2013-12-05 22:35:00
4:55 PM,15.4,-2.0,46,30.31,10.0,North,10.4,16.1,N/A,,Clear,350,2013-12-05 22:55:00
5:15 PM,15.3,-1.5,48,30.31,10.0,North,10.4,-,N/A,,Clear,350,2013-12-05 23:15:00
5:35 PM,14.5,-1.3,50,30.31,10.0,North,8.1,-,N/A,,Clear,350,2013-12-05 23:35:00
5:55 PM,14.7,-1.3,49,30.33,10.0,North,8.1,-,N/A,,Clear,350,2013-12-05 23:55:00
6:15 PM,14.5,-0.8,51,30.33,10.0,North,9.2,-,N/A,,Clear,350,2013-12-06 00:15:00
6:35 PM,14.7,-0.9,50,30.33,10.0,North,9.2,-,N/A,,Clear,360,2013-12-06 00:35:00
6:55 PM,14.9,-1.5,48,30.34,10.0,North,10.4,-,N/A,,Clear,350,2013-12-06 00:55:00
7:15 PM,14.9,-2.4,46,30.34,10.0,North,16.1,-,N/A,,Clear,350,2013-12-06 01:15:00
7:35 PM,14.7,-2.4,47,30.34,10.0,North,16.1,-,N/A,,Clear,360,2013-12-06 01:35:00
7:55 PM,14.2,-2.7,47,30.34,10.0,North,16.1,-,N/A,,Clear,350,2013-12-06 01:55:00
8:15 PM,13.8,-4.0,45,30.35,10.0,North,19.6,-,N/A,,Clear,360,2013-12-06 02:15:00
8:35 PM,13.5,-4.0,46,30.37,10.0,North,16.1,-,N/A,,Mostly Cloudy,350,2013-12-06 02:35:00
8:55 PM,12.9,-4.4,46,30.39,10.0,North,15.0,-,N/A,,Overcast,350,2013-12-06 02:55:00
9:15 PM,12.7,-3.8,48,30.38,10.0,North,19.6,-,N/A,,Overcast,350,2013-12-06 03:15:00
9:35 PM,12.2,-3.6,49,30.37,10.0,North,17.3,-,N/A,,Mostly Cloudy,360,2013-12-06 03:35:00
9:55 PM,11.8,-4.2,49,30.39,10.0,North,16.1,21.9,N/A,,Mostly Cloudy,350,2013-12-06 03:55:00
10:15 PM,11.3,-4.2,50,30.40,10.0,North,12.7,-,N/A,,Overcast,360,2013-12-06 04:15:00
10:35 PM,11.1,-5.3,48,30.41,10.0,North,15.0,-,N/A,,Overcast,360,2013-12-06 04:35:00
10:55 PM,10.8,-5.1,49,30.42,10.0,North,12.7,-,N/A,,Mostly Cloudy,360,2013-12-06 04:55:00
11:15 PM,10.8,-5.4,48,30.42,10.0,North,11.5,-,N/A,,Overcast,10,2013-12-06 05:15:00
11:35 PM,10.8,-6.2,47,30.42,10.0,North,11.5,-,N/A,,Overcast,10,2013-12-06 05:35:00
11:55 PM,10.9,-5.4,48,30.43,10.0,North,10.4,-,N/A,,Overcast,360,2013-12-06 05:55:00